sensor_id;sensor_type;location;lat;lon;timestamp;temperature;humidity
1988;DHT22;12775;46.994;15.498;2022-08-19T00:00:41;22.80;91.40
1988;DHT22;12775;46.994;15.498;2022-08-19T00:03:08;22.70;91.70
1988;DHT22;12775;46.994;15.498;2022-08-19T00:05:35;22.70;91.60
1988;DHT22;12775;46.994;15.498;2022-08-19T00:08:03;22.70;91.00
1988;DHT22;12775;46.994;15.498;2022-08-19T00:10:30;22.70;91.40
1988;DHT22;12775;46.994;15.498;2022-08-19T00:12:58;22.60;91.20
1988;DHT22;12775;46.994;15.498;2022-08-19T00:15:25;22.60;92.10
1988;DHT22;12775;46.994;15.498;2022-08-19T00:17:54;22.50;92.30
1988;DHT22;12775;46.994;15.498;2022-08-19T00:20:21;22.50;92.10
1988;DHT22;12775;46.994;15.498;2022-08-19T00:22:48;22.50;92.30
1988;DHT22;12775;46.994;15.498;2022-08-19T00:25:16;22.50;91.60
1988;DHT22;12775;46.994;15.498;2022-08-19T00:27:43;22.50;92.90
1988;DHT22;12775;46.994;15.498;2022-08-19T00:30:11;22.50;93.40
1988;DHT22;12775;46.994;15.498;2022-08-19T00:32:39;22.40;93.10
1988;DHT22;12775;46.994;15.498;2022-08-19T00:35:06;22.40;93.20
1988;DHT22;12775;46.994;15.498;2022-08-19T00:37:34;22.40;93.40
1988;DHT22;12775;46.994;15.498;2022-08-19T00:40:03;22.40;94.00
1988;DHT22;12775;46.994;15.498;2022-08-19T00:42:29;22.30;94.10
1988;DHT22;12775;46.994;15.498;2022-08-19T00:44:56;22.30;94.40
1988;DHT22;12775;46.994;15.498;2022-08-19T00:47:24;22.30;94.60
1988;DHT22;12775;46.994;15.498;2022-08-19T00:49:52;22.20;94.10
1988;DHT22;12775;46.994;15.498;2022-08-19T00:52:21;22.20;94.70
1988;DHT22;12775;46.994;15.498;2022-08-19T00:54:47;22.20;94.80
1988;DHT22;12775;46.994;15.498;2022-08-19T00:57:15;22.20;94.20
1988;DHT22;12775;46.994;15.498;2022-08-19T00:59:42;22.20;95.00
1988;DHT22;12775;46.994;15.498;2022-08-19T01:02:09;22.10;95.00
1988;DHT22;12775;46.994;15.498;2022-08-19T01:04:36;22.10;96.00
1988;DHT22;12775;46.994;15.498;2022-08-19T01:07:03;22.10;95.90
1988;DHT22;12775;46.994;15.498;2022-08-19T01:09:31;22.10;95.60
1988;DHT22;12775;46.994;15.498;2022-08-19T01:11:58;22.10;95.40
1988;DHT22;12775;46.994;15.498;2022-08-19T01:14:25;22.00;95.10
1988;DHT22;12775;46.994;15.498;2022-08-19T01:16:53;22.10;94.50
1988;DHT22;12775;46.994;15.498;2022-08-19T01:19:27;22.00;94.60
1988;DHT22;12775;46.994;15.498;2022-08-19T01:21:57;22.10;95.50
1988;DHT22;12775;46.994;15.498;2022-08-19T01:24:22;22.10;94.70
1988;DHT22;12775;46.994;15.498;2022-08-19T01:26:50;22.10;95.70
1988;DHT22;12775;46.994;15.498;2022-08-19T01:29:18;22.00;95.00
1988;DHT22;12775;46.994;15.498;2022-08-19T01:31:45;22.10;94.60
1988;DHT22;12775;46.994;15.498;2022-08-19T01:34:12;22.10;94.90
1988;DHT22;12775;46.994;15.498;2022-08-19T01:36:41;22.10;96.50
1988;DHT22;12775;46.994;15.498;2022-08-19T01:39:09;22.00;96.50
1988;DHT22;12775;46.994;15.498;2022-08-19T01:41:35;22.00;95.80
1988;DHT22;12775;46.994;15.498;2022-08-19T01:44:03;22.00;95.80
1988;DHT22;12775;46.994;15.498;2022-08-19T01:46:30;22.00;95.30
1988;DHT22;12775;46.994;15.498;2022-08-19T01:48:57;22.00;96.40
1988;DHT22;12775;46.994;15.498;2022-08-19T01:51:24;21.90;96.70
1988;DHT22;12775;46.994;15.498;2022-08-19T01:53:52;21.90;96.70
1988;DHT22;12775;46.994;15.498;2022-08-19T01:56:19;21.90;96.50
1988;DHT22;12775;46.994;15.498;2022-08-19T01:58:49;21.90;95.90
1988;DHT22;12775;46.994;15.498;2022-08-19T02:01:14;21.90;95.50
1988;DHT22;12775;46.994;15.498;2022-08-19T02:03:41;21.80;95.40
1988;DHT22;12775;46.994;15.498;2022-08-19T02:06:09;21.90;95.90
1988;DHT22;12775;46.994;15.498;2022-08-19T02:08:36;21.80;96.00
1988;DHT22;12775;46.994;15.498;2022-08-19T02:11:04;21.80;95.60
1988;DHT22;12775;46.994;15.498;2022-08-19T02:13:32;21.80;95.20
1988;DHT22;12775;46.994;15.498;2022-08-19T02:15:58;21.80;94.80
1988;DHT22;12775;46.994;15.498;2022-08-19T02:18:26;21.80;94.90
1988;DHT22;12775;46.994;15.498;2022-08-19T02:20:54;21.90;95.20
1988;DHT22;12775;46.994;15.498;2022-08-19T02:23:21;21.80;94.80
1988;DHT22;12775;46.994;15.498;2022-08-19T02:25:49;21.90;94.40
1988;DHT22;12775;46.994;15.498;2022-08-19T02:28:16;21.90;94.60
1988;DHT22;12775;46.994;15.498;2022-08-19T02:30:44;21.90;95.70
1988;DHT22;12775;46.994;15.498;2022-08-19T02:33:11;21.90;95.60
1988;DHT22;12775;46.994;15.498;2022-08-19T02:35:41;21.90;95.80
1988;DHT22;12775;46.994;15.498;2022-08-19T02:38:06;21.90;96.30
1988;DHT22;12775;46.994;15.498;2022-08-19T02:40:39;21.90;96.30
1988;DHT22;12775;46.994;15.498;2022-08-19T02:43:07;21.80;96.10
1988;DHT22;12775;46.994;15.498;2022-08-19T02:45:35;21.90;95.70
1988;DHT22;12775;46.994;15.498;2022-08-19T02:48:02;21.80;96.10
1988;DHT22;12775;46.994;15.498;2022-08-19T02:50:30;21.80;95.90
1988;DHT22;12775;46.994;15.498;2022-08-19T02:52:57;21.80;95.90
1988;DHT22;12775;46.994;15.498;2022-08-19T02:55:25;21.80;96.20
1988;DHT22;12775;46.994;15.498;2022-08-19T02:57:52;21.80;96.40
1988;DHT22;12775;46.994;15.498;2022-08-19T03:00:19;21.80;96.90
1988;DHT22;12775;46.994;15.498;2022-08-19T03:02:47;21.80;96.50
1988;DHT22;12775;46.994;15.498;2022-08-19T03:05:14;21.80;96.50
1988;DHT22;12775;46.994;15.498;2022-08-19T03:07:41;21.80;96.50
1988;DHT22;12775;46.994;15.498;2022-08-19T03:10:08;21.70;97.70
1988;DHT22;12775;46.994;15.498;2022-08-19T03:12:37;21.60;97.80
1988;DHT22;12775;46.994;15.498;2022-08-19T03:15:05;21.60;97.30
1988;DHT22;12775;46.994;15.498;2022-08-19T03:17:32;21.60;98.10
1988;DHT22;12775;46.994;15.498;2022-08-19T03:19:59;21.60;98.10
1988;DHT22;12775;46.994;15.498;2022-08-19T03:22:28;21.60;97.90
1988;DHT22;12775;46.994;15.498;2022-08-19T03:24:55;21.50;98.60
1988;DHT22;12775;46.994;15.498;2022-08-19T03:27:22;21.50;98.90
1988;DHT22;12775;46.994;15.498;2022-08-19T03:29:50;21.40;99.40
1988;DHT22;12775;46.994;15.498;2022-08-19T03:32:17;21.30;99.90
1988;DHT22;12775;46.994;15.498;2022-08-19T03:34:45;21.20;99.90
1988;DHT22;12775;46.994;15.498;2022-08-19T03:37:12;21.10;99.90
1988;DHT22;12775;46.994;15.498;2022-08-19T03:39:40;21.00;99.90
1988;DHT22;12775;46.994;15.498;2022-08-19T03:42:07;21.00;99.90
1988;DHT22;12775;46.994;15.498;2022-08-19T03:44:34;21.00;99.90
1988;DHT22;12775;46.994;15.498;2022-08-19T03:47:01;21.00;99.90
1988;DHT22;12775;46.994;15.498;2022-08-19T03:49:29;21.00;99.90
1988;DHT22;12775;46.994;15.498;2022-08-19T03:51:57;21.00;99.90
1988;DHT22;12775;46.994;15.498;2022-08-19T03:54:24;21.00;99.90
1988;DHT22;12775;46.994;15.498;2022-08-19T03:56:51;21.10;99.90
1988;DHT22;12775;46.994;15.498;2022-08-19T03:59:21;21.00;99.90
1988;DHT22;12775;46.994;15.498;2022-08-19T04:01:46;21.00;99.90
1988;DHT22;12775;46.994;15.498;2022-08-19T04:04:14;21.00;99.90
1988;DHT22;12775;46.994;15.498;2022-08-19T04:06:42;21.00;99.90
1988;DHT22;12775;46.994;15.498;2022-08-19T04:09:09;21.10;99.90
1988;DHT22;12775;46.994;15.498;2022-08-19T04:11:38;21.10;99.90
1988;DHT22;12775;46.994;15.498;2022-08-19T04:14:04;21.10;99.90
1988;DHT22;12775;46.994;15.498;2022-08-19T04:16:31;21.10;99.90
1988;DHT22;12775;46.994;15.498;2022-08-19T04:19:00;21.20;99.90
1988;DHT22;12775;46.994;15.498;2022-08-19T04:21:27;21.20;99.90
1988;DHT22;12775;46.994;15.498;2022-08-19T04:23:55;21.20;99.90
1988;DHT22;12775;46.994;15.498;2022-08-19T04:26:25;21.20;99.90
1988;DHT22;12775;46.994;15.498;2022-08-19T04:28:51;21.20;99.90
1988;DHT22;12775;46.994;15.498;2022-08-19T04:31:19;21.20;99.90
1988;DHT22;12775;46.994;15.498;2022-08-19T04:33:45;21.20;99.90
1988;DHT22;12775;46.994;15.498;2022-08-19T04:36:17;21.30;99.90
1988;DHT22;12775;46.994;15.498;2022-08-19T04:38:44;21.20;99.90
1988;DHT22;12775;46.994;15.498;2022-08-19T04:41:11;21.20;99.90
1988;DHT22;12775;46.994;15.498;2022-08-19T04:43:45;21.20;99.90
1988;DHT22;12775;46.994;15.498;2022-08-19T04:46:14;21.20;99.90
1988;DHT22;12775;46.994;15.498;2022-08-19T04:48:42;21.20;99.90
1988;DHT22;12775;46.994;15.498;2022-08-19T04:51:11;21.20;99.90
1988;DHT22;12775;46.994;15.498;2022-08-19T04:53:37;21.20;99.90
1988;DHT22;12775;46.994;15.498;2022-08-19T04:56:11;21.20;99.90
1988;DHT22;12775;46.994;15.498;2022-08-19T04:58:38;21.20;99.90
1988;DHT22;12775;46.994;15.498;2022-08-19T05:01:04;21.30;99.90
1988;DHT22;12775;46.994;15.498;2022-08-19T05:03:32;21.30;99.90
1988;DHT22;12775;46.994;15.498;2022-08-19T05:06:08;21.40;99.90
1988;DHT22;12775;46.994;15.498;2022-08-19T05:08:35;21.40;99.90
1988;DHT22;12775;46.994;15.498;2022-08-19T05:11:07;21.50;99.90
1988;DHT22;12775;46.994;15.498;2022-08-19T05:13:30;21.50;99.90
1988;DHT22;12775;46.994;15.498;2022-08-19T05:15:58;21.60;99.90
1988;DHT22;12775;46.994;15.498;2022-08-19T05:18:25;21.60;99.90
1988;DHT22;12775;46.994;15.498;2022-08-19T05:20:58;21.60;99.90
1988;DHT22;12775;46.994;15.498;2022-08-19T05:23:31;21.70;99.90
1988;DHT22;12775;46.994;15.498;2022-08-19T05:25:59;21.60;99.90
1988;DHT22;12775;46.994;15.498;2022-08-19T05:28:26;21.70;99.90
1988;DHT22;12775;46.994;15.498;2022-08-19T05:30:53;21.50;99.90
1988;DHT22;12775;46.994;15.498;2022-08-19T05:33:21;21.60;99.90
1988;DHT22;12775;46.994;15.498;2022-08-19T05:35:48;21.60;99.90
1988;DHT22;12775;46.994;15.498;2022-08-19T05:38:17;21.80;99.90
1988;DHT22;12775;46.994;15.498;2022-08-19T05:40:44;21.90;99.90
1988;DHT22;12775;46.994;15.498;2022-08-19T05:43:12;21.90;99.90
1988;DHT22;12775;46.994;15.498;2022-08-19T05:48:23;22.00;99.90
1988;DHT22;12775;46.994;15.498;2022-08-19T05:50:50;22.00;99.90
1988;DHT22;12775;46.994;15.498;2022-08-19T05:53:18;22.20;99.90
1988;DHT22;12775;46.994;15.498;2022-08-19T05:55:46;22.20;99.90
1988;DHT22;12775;46.994;15.498;2022-08-19T05:58:14;22.30;99.90
1988;DHT22;12775;46.994;15.498;2022-08-19T06:00:43;22.40;99.90
1988;DHT22;12775;46.994;15.498;2022-08-19T06:03:10;22.40;99.90
1988;DHT22;12775;46.994;15.498;2022-08-19T06:05:37;22.40;99.90
1988;DHT22;12775;46.994;15.498;2022-08-19T06:08:08;22.40;99.90
1988;DHT22;12775;46.994;15.498;2022-08-19T06:10:35;22.50;99.90
1988;DHT22;12775;46.994;15.498;2022-08-19T06:13:02;22.20;99.90
1988;DHT22;12775;46.994;15.498;2022-08-19T06:15:31;22.00;99.90
1988;DHT22;12775;46.994;15.498;2022-08-19T06:18:00;22.00;99.90
1988;DHT22;12775;46.994;15.498;2022-08-19T06:20:27;22.10;99.90
1988;DHT22;12775;46.994;15.498;2022-08-19T06:22:55;22.10;99.90
1988;DHT22;12775;46.994;15.498;2022-08-19T06:25:24;22.10;99.90
1988;DHT22;12775;46.994;15.498;2022-08-19T06:27:52;22.10;99.90
1988;DHT22;12775;46.994;15.498;2022-08-19T06:30:20;22.20;99.90
1988;DHT22;12775;46.994;15.498;2022-08-19T06:32:48;22.30;99.90
1988;DHT22;12775;46.994;15.498;2022-08-19T06:35:15;22.40;99.90
1988;DHT22;12775;46.994;15.498;2022-08-19T06:37:42;22.30;99.90
1988;DHT22;12775;46.994;15.498;2022-08-19T06:40:11;22.50;99.90
1988;DHT22;12775;46.994;15.498;2022-08-19T06:42:38;22.50;99.90
1988;DHT22;12775;46.994;15.498;2022-08-19T06:45:06;22.50;99.90
1988;DHT22;12775;46.994;15.498;2022-08-19T06:47:35;22.60;99.90
1988;DHT22;12775;46.994;15.498;2022-08-19T06:50:02;22.60;99.90
1988;DHT22;12775;46.994;15.498;2022-08-19T06:52:31;22.80;99.90
1988;DHT22;12775;46.994;15.498;2022-08-19T06:55:01;23.00;99.90
1988;DHT22;12775;46.994;15.498;2022-08-19T06:57:27;23.10;99.90
1988;DHT22;12775;46.994;15.498;2022-08-19T06:59:54;23.20;99.90
1988;DHT22;12775;46.994;15.498;2022-08-19T07:02:22;23.30;99.90
1988;DHT22;12775;46.994;15.498;2022-08-19T07:04:49;23.30;99.90
1988;DHT22;12775;46.994;15.498;2022-08-19T07:07:16;23.30;99.90
1988;DHT22;12775;46.994;15.498;2022-08-19T07:09:45;23.30;99.90
1988;DHT22;12775;46.994;15.498;2022-08-19T07:12:12;23.30;99.90
1988;DHT22;12775;46.994;15.498;2022-08-19T07:14:40;23.30;99.90
1988;DHT22;12775;46.994;15.498;2022-08-19T07:17:09;23.30;99.90
1988;DHT22;12775;46.994;15.498;2022-08-19T07:19:36;23.40;99.90
1988;DHT22;12775;46.994;15.498;2022-08-19T07:22:05;23.40;99.90
1988;DHT22;12775;46.994;15.498;2022-08-19T07:24:32;23.40;99.90
1988;DHT22;12775;46.994;15.498;2022-08-19T07:26:59;23.50;99.90
1988;DHT22;12775;46.994;15.498;2022-08-19T07:29:27;23.50;99.90
1988;DHT22;12775;46.994;15.498;2022-08-19T07:31:55;23.50;99.90
1988;DHT22;12775;46.994;15.498;2022-08-19T07:34:23;23.40;99.90
1988;DHT22;12775;46.994;15.498;2022-08-19T07:36:51;23.60;99.90
1988;DHT22;12775;46.994;15.498;2022-08-19T07:39:18;23.50;99.90
1988;DHT22;12775;46.994;15.498;2022-08-19T07:41:45;23.70;99.90
1988;DHT22;12775;46.994;15.498;2022-08-19T07:44:12;23.70;99.90
1988;DHT22;12775;46.994;15.498;2022-08-19T07:46:41;23.80;99.90
1988;DHT22;12775;46.994;15.498;2022-08-19T07:49:07;23.70;99.90
1988;DHT22;12775;46.994;15.498;2022-08-19T07:51:34;23.70;99.90
1988;DHT22;12775;46.994;15.498;2022-08-19T07:54:01;23.70;99.90
1988;DHT22;12775;46.994;15.498;2022-08-19T07:56:30;23.70;99.90
1988;DHT22;12775;46.994;15.498;2022-08-19T07:58:57;23.80;99.90
1988;DHT22;12775;46.994;15.498;2022-08-19T08:01:26;23.70;99.90
1988;DHT22;12775;46.994;15.498;2022-08-19T08:03:54;23.70;99.90
1988;DHT22;12775;46.994;15.498;2022-08-19T08:06:27;23.70;99.90
1988;DHT22;12775;46.994;15.498;2022-08-19T08:09:00;23.80;99.90
1988;DHT22;12775;46.994;15.498;2022-08-19T08:11:33;23.70;99.90
1988;DHT22;12775;46.994;15.498;2022-08-19T08:14:01;23.40;99.90
1988;DHT22;12775;46.994;15.498;2022-08-19T08:16:28;23.40;99.90
1988;DHT22;12775;46.994;15.498;2022-08-19T08:18:55;23.40;99.90
1988;DHT22;12775;46.994;15.498;2022-08-19T08:21:22;23.50;99.90
1988;DHT22;12775;46.994;15.498;2022-08-19T08:23:50;23.50;99.90
1988;DHT22;12775;46.994;15.498;2022-08-19T08:26:17;23.40;99.90
1988;DHT22;12775;46.994;15.498;2022-08-19T08:28:44;23.20;99.90
1988;DHT22;12775;46.994;15.498;2022-08-19T08:31:13;23.20;99.90
1988;DHT22;12775;46.994;15.498;2022-08-19T08:33:40;23.20;99.90
1988;DHT22;12775;46.994;15.498;2022-08-19T08:36:08;23.30;99.90
1988;DHT22;12775;46.994;15.498;2022-08-19T08:38:36;23.20;99.90
1988;DHT22;12775;46.994;15.498;2022-08-19T08:41:06;23.20;99.90
1988;DHT22;12775;46.994;15.498;2022-08-19T08:43:35;23.30;99.90
1988;DHT22;12775;46.994;15.498;2022-08-19T08:46:05;23.30;99.90
1988;DHT22;12775;46.994;15.498;2022-08-19T08:48:32;23.40;99.90
1988;DHT22;12775;46.994;15.498;2022-08-19T08:50:57;23.40;99.90
1988;DHT22;12775;46.994;15.498;2022-08-19T08:53:27;23.50;99.90
1988;DHT22;12775;46.994;15.498;2022-08-19T08:55:54;23.50;99.90
1988;DHT22;12775;46.994;15.498;2022-08-19T08:58:28;23.50;99.90
1988;DHT22;12775;46.994;15.498;2022-08-19T09:00:55;23.60;99.90
1988;DHT22;12775;46.994;15.498;2022-08-19T09:03:26;23.60;99.90
1988;DHT22;12775;46.994;15.498;2022-08-19T09:05:59;23.70;99.90
1988;DHT22;12775;46.994;15.498;2022-08-19T09:09:35;23.80;99.90
1988;DHT22;12775;46.994;15.498;2022-08-19T09:11:15;23.80;99.90
1988;DHT22;12775;46.994;15.498;2022-08-19T09:14:08;23.90;99.90
1988;DHT22;12775;46.994;15.498;2022-08-19T09:16:31;23.80;99.90
1988;DHT22;12775;46.994;15.498;2022-08-19T09:19:03;23.80;99.90
1988;DHT22;12775;46.994;15.498;2022-08-19T09:21:30;23.90;99.90
1988;DHT22;12775;46.994;15.498;2022-08-19T09:23:57;23.90;99.90
1988;DHT22;12775;46.994;15.498;2022-08-19T09:26:24;23.90;99.90
1988;DHT22;12775;46.994;15.498;2022-08-19T09:28:52;23.90;99.90
1988;DHT22;12775;46.994;15.498;2022-08-19T09:31:21;24.10;99.90
1988;DHT22;12775;46.994;15.498;2022-08-19T09:33:47;24.20;99.90
1988;DHT22;12775;46.994;15.498;2022-08-19T09:36:15;24.00;99.90
1988;DHT22;12775;46.994;15.498;2022-08-19T09:38:42;24.30;99.90
1988;DHT22;12775;46.994;15.498;2022-08-19T09:41:10;24.50;99.90
1988;DHT22;12775;46.994;15.498;2022-08-19T09:43:36;24.40;99.90
1988;DHT22;12775;46.994;15.498;2022-08-19T09:46:03;24.70;99.90
1988;DHT22;12775;46.994;15.498;2022-08-19T09:48:31;24.90;99.90
1988;DHT22;12775;46.994;15.498;2022-08-19T09:51:04;25.10;99.90
1988;DHT22;12775;46.994;15.498;2022-08-19T09:53:31;25.20;99.90
1988;DHT22;12775;46.994;15.498;2022-08-19T09:55:59;25.30;99.90
1988;DHT22;12775;46.994;15.498;2022-08-19T09:58:26;25.40;99.90
1988;DHT22;12775;46.994;15.498;2022-08-19T10:00:54;25.40;99.90
1988;DHT22;12775;46.994;15.498;2022-08-19T10:03:21;25.40;99.90
1988;DHT22;12775;46.994;15.498;2022-08-19T10:05:50;25.50;99.90
1988;DHT22;12775;46.994;15.498;2022-08-19T10:08:23;25.60;99.90
1988;DHT22;12775;46.994;15.498;2022-08-19T10:10:46;25.60;99.90
1988;DHT22;12775;46.994;15.498;2022-08-19T10:13:14;25.60;99.90
1988;DHT22;12775;46.994;15.498;2022-08-19T10:15:43;25.50;99.90
1988;DHT22;12775;46.994;15.498;2022-08-19T10:18:09;25.50;99.90
1988;DHT22;12775;46.994;15.498;2022-08-19T10:20:37;25.40;99.90
1988;DHT22;12775;46.994;15.498;2022-08-19T10:23:04;25.50;99.90
1988;DHT22;12775;46.994;15.498;2022-08-19T10:25:31;25.40;99.90
1988;DHT22;12775;46.994;15.498;2022-08-19T10:27:58;25.40;99.90
1988;DHT22;12775;46.994;15.498;2022-08-19T10:30:26;25.20;99.90
1988;DHT22;12775;46.994;15.498;2022-08-19T10:32:55;25.20;99.90
1988;DHT22;12775;46.994;15.498;2022-08-19T10:35:22;25.20;99.90
1988;DHT22;12775;46.994;15.498;2022-08-19T10:37:49;25.30;99.90
1988;DHT22;12775;46.994;15.498;2022-08-19T10:40:17;25.30;99.90
1988;DHT22;12775;46.994;15.498;2022-08-19T10:42:44;25.30;99.90
1988;DHT22;12775;46.994;15.498;2022-08-19T10:45:12;25.30;99.90
1988;DHT22;12775;46.994;15.498;2022-08-19T10:47:40;25.40;99.90
1988;DHT22;12775;46.994;15.498;2022-08-19T10:50:08;25.50;99.90
1988;DHT22;12775;46.994;15.498;2022-08-19T10:52:45;25.60;99.90
1988;DHT22;12775;46.994;15.498;2022-08-19T10:55:11;25.60;99.90
1988;DHT22;12775;46.994;15.498;2022-08-19T10:57:45;25.60;99.90
1988;DHT22;12775;46.994;15.498;2022-08-19T11:00:12;25.70;99.90
1988;DHT22;12775;46.994;15.498;2022-08-19T11:02:40;25.80;99.90
1988;DHT22;12775;46.994;15.498;2022-08-19T11:05:08;26.00;99.90
1988;DHT22;12775;46.994;15.498;2022-08-19T11:07:38;25.90;99.90
1988;DHT22;12775;46.994;15.498;2022-08-19T11:10:05;25.80;99.90
1988;DHT22;12775;46.994;15.498;2022-08-19T11:12:32;25.80;99.90
1988;DHT22;12775;46.994;15.498;2022-08-19T11:14:59;25.90;99.90
1988;DHT22;12775;46.994;15.498;2022-08-19T11:17:28;26.00;99.90
1988;DHT22;12775;46.994;15.498;2022-08-19T11:19:55;26.20;99.90
1988;DHT22;12775;46.994;15.498;2022-08-19T11:22:22;26.30;99.90
1988;DHT22;12775;46.994;15.498;2022-08-19T11:24:50;26.30;99.90
1988;DHT22;12775;46.994;15.498;2022-08-19T11:27:16;26.30;99.90
1988;DHT22;12775;46.994;15.498;2022-08-19T11:29:45;26.30;99.90
1988;DHT22;12775;46.994;15.498;2022-08-19T11:32:12;26.50;99.90
1988;DHT22;12775;46.994;15.498;2022-08-19T11:34:40;26.60;99.90
1988;DHT22;12775;46.994;15.498;2022-08-19T11:37:07;26.60;99.90
1988;DHT22;12775;46.994;15.498;2022-08-19T11:39:34;26.70;99.90
1988;DHT22;12775;46.994;15.498;2022-08-19T11:42:03;26.80;99.90
1988;DHT22;12775;46.994;15.498;2022-08-19T11:44:30;27.00;99.90
1988;DHT22;12775;46.994;15.498;2022-08-19T11:46:58;27.10;99.90
1988;DHT22;12775;46.994;15.498;2022-08-19T11:49:25;27.10;99.90
1988;DHT22;12775;46.994;15.498;2022-08-19T11:51:52;27.30;99.90
1988;DHT22;12775;46.994;15.498;2022-08-19T11:54:19;27.40;99.90
1988;DHT22;12775;46.994;15.498;2022-08-19T11:56:46;27.50;99.90
1988;DHT22;12775;46.994;15.498;2022-08-19T11:59:14;27.30;98.10
1988;DHT22;12775;46.994;15.498;2022-08-19T12:01:42;27.50;99.80
1988;DHT22;12775;46.994;15.498;2022-08-19T12:04:09;27.60;99.90
1988;DHT22;12775;46.994;15.498;2022-08-19T12:06:37;27.80;99.30
1988;DHT22;12775;46.994;15.498;2022-08-19T12:09:04;28.00;99.90
1988;DHT22;12775;46.994;15.498;2022-08-19T12:11:31;28.10;98.90
1988;DHT22;12775;46.994;15.498;2022-08-19T12:13:58;28.30;99.30
1988;DHT22;12775;46.994;15.498;2022-08-19T12:16:27;28.50;98.80
1988;DHT22;12775;46.994;15.498;2022-08-19T12:18:54;28.60;98.00
1988;DHT22;12775;46.994;15.498;2022-08-19T12:21:24;28.80;94.60
1988;DHT22;12775;46.994;15.498;2022-08-19T12:23:50;28.50;91.70
1988;DHT22;12775;46.994;15.498;2022-08-19T12:26:17;28.30;92.20
1988;DHT22;12775;46.994;15.498;2022-08-19T12:28:44;28.10;92.10
1988;DHT22;12775;46.994;15.498;2022-08-19T12:31:12;28.10;91.40
1988;DHT22;12775;46.994;15.498;2022-08-19T12:33:40;28.30;92.50
1988;DHT22;12775;46.994;15.498;2022-08-19T12:36:08;28.50;91.90
1988;DHT22;12775;46.994;15.498;2022-08-19T12:38:35;28.20;90.40
1988;DHT22;12775;46.994;15.498;2022-08-19T12:41:03;28.20;91.50
1988;DHT22;12775;46.994;15.498;2022-08-19T12:43:30;28.30;90.80
1988;DHT22;12775;46.994;15.498;2022-08-19T12:45:57;28.40;90.70
1988;DHT22;12775;46.994;15.498;2022-08-19T12:48:25;28.40;89.10
1988;DHT22;12775;46.994;15.498;2022-08-19T12:50:52;28.40;87.80
1988;DHT22;12775;46.994;15.498;2022-08-19T12:53:20;28.60;83.00
1988;DHT22;12775;46.994;15.498;2022-08-19T12:55:47;28.70;83.90
1988;DHT22;12775;46.994;15.498;2022-08-19T12:58:14;28.60;83.40
1988;DHT22;12775;46.994;15.498;2022-08-19T13:00:42;28.60;82.60
1988;DHT22;12775;46.994;15.498;2022-08-19T13:03:09;28.70;85.60
1988;DHT22;12775;46.994;15.498;2022-08-19T13:05:36;28.60;84.10
1988;DHT22;12775;46.994;15.498;2022-08-19T13:08:05;28.70;82.60
1988;DHT22;12775;46.994;15.498;2022-08-19T13:10:33;28.90;79.90
1988;DHT22;12775;46.994;15.498;2022-08-19T13:13:04;28.90;80.90
1988;DHT22;12775;46.994;15.498;2022-08-19T13:15:32;28.90;81.40
1988;DHT22;12775;46.994;15.498;2022-08-19T13:17:57;29.10;79.70
1988;DHT22;12775;46.994;15.498;2022-08-19T13:20:25;29.20;81.20
1988;DHT22;12775;46.994;15.498;2022-08-19T13:22:52;29.30;81.60
1988;DHT22;12775;46.994;15.498;2022-08-19T13:25:20;29.30;81.30
1988;DHT22;12775;46.994;15.498;2022-08-19T13:27:47;29.30;80.50
1988;DHT22;12775;46.994;15.498;2022-08-19T13:30:16;29.40;81.60
1988;DHT22;12775;46.994;15.498;2022-08-19T13:32:48;29.40;79.10
1988;DHT22;12775;46.994;15.498;2022-08-19T13:35:21;29.40;80.30
1988;DHT22;12775;46.994;15.498;2022-08-19T13:37:49;29.30;78.00
1988;DHT22;12775;46.994;15.498;2022-08-19T13:40:17;29.40;80.40
1988;DHT22;12775;46.994;15.498;2022-08-19T13:42:46;29.40;76.70
1988;DHT22;12775;46.994;15.498;2022-08-19T13:45:12;29.30;77.00
1988;DHT22;12775;46.994;15.498;2022-08-19T13:47:39;29.20;76.30
1988;DHT22;12775;46.994;15.498;2022-08-19T13:50:11;29.10;77.20
1988;DHT22;12775;46.994;15.498;2022-08-19T13:52:37;29.10;78.20
1988;DHT22;12775;46.994;15.498;2022-08-19T13:55:06;29.20;79.30
1988;DHT22;12775;46.994;15.498;2022-08-19T13:57:34;29.20;77.40
1988;DHT22;12775;46.994;15.498;2022-08-19T14:00:07;29.30;77.70
1988;DHT22;12775;46.994;15.498;2022-08-19T14:02:29;29.30;75.60
1988;DHT22;12775;46.994;15.498;2022-08-19T14:04:57;29.40;75.30
1988;DHT22;12775;46.994;15.498;2022-08-19T14:07:24;29.30;77.20
1988;DHT22;12775;46.994;15.498;2022-08-19T14:09:51;29.60;78.60
1988;DHT22;12775;46.994;15.498;2022-08-19T14:12:20;29.60;74.20
1988;DHT22;12775;46.994;15.498;2022-08-19T14:14:47;29.60;74.90
1988;DHT22;12775;46.994;15.498;2022-08-19T14:17:14;29.60;75.70
1988;DHT22;12775;46.994;15.498;2022-08-19T14:19:42;29.70;76.60
1988;DHT22;12775;46.994;15.498;2022-08-19T14:22:09;29.70;76.60
1988;DHT22;12775;46.994;15.498;2022-08-19T14:24:37;29.70;75.50
1988;DHT22;12775;46.994;15.498;2022-08-19T14:27:04;29.60;75.40
1988;DHT22;12775;46.994;15.498;2022-08-19T14:29:31;29.60;75.80
1988;DHT22;12775;46.994;15.498;2022-08-19T14:31:59;29.80;76.60
1988;DHT22;12775;46.994;15.498;2022-08-19T14:34:28;30.00;77.70
1988;DHT22;12775;46.994;15.498;2022-08-19T14:36:56;30.00;75.00
1988;DHT22;12775;46.994;15.498;2022-08-19T14:39:23;30.10;76.50
1988;DHT22;12775;46.994;15.498;2022-08-19T14:41:51;29.90;73.40
1988;DHT22;12775;46.994;15.498;2022-08-19T14:44:17;29.90;73.40
1988;DHT22;12775;46.994;15.498;2022-08-19T14:46:45;29.90;74.10
1988;DHT22;12775;46.994;15.498;2022-08-19T14:49:12;30.20;72.50
1988;DHT22;12775;46.994;15.498;2022-08-19T14:51:40;30.10;71.20
1988;DHT22;12775;46.994;15.498;2022-08-19T14:54:07;30.40;72.60
1988;DHT22;12775;46.994;15.498;2022-08-19T14:56:36;30.50;71.90
1988;DHT22;12775;46.994;15.498;2022-08-19T14:59:04;30.40;70.70
1988;DHT22;12775;46.994;15.498;2022-08-19T15:01:31;30.40;71.30
1988;DHT22;12775;46.994;15.498;2022-08-19T15:03:58;30.60;73.20
1988;DHT22;12775;46.994;15.498;2022-08-19T15:06:28;30.50;73.40
1988;DHT22;12775;46.994;15.498;2022-08-19T15:08:53;30.60;71.90
1988;DHT22;12775;46.994;15.498;2022-08-19T15:11:22;30.70;71.40
1988;DHT22;12775;46.994;15.498;2022-08-19T15:13:49;30.70;71.90
1988;DHT22;12775;46.994;15.498;2022-08-19T15:16:17;30.70;71.70
1988;DHT22;12775;46.994;15.498;2022-08-19T15:18:49;30.60;72.20
1988;DHT22;12775;46.994;15.498;2022-08-19T15:21:14;30.70;73.90
1988;DHT22;12775;46.994;15.498;2022-08-19T15:23:42;30.80;71.10
1988;DHT22;12775;46.994;15.498;2022-08-19T15:26:10;30.90;74.80
1988;DHT22;12775;46.994;15.498;2022-08-19T15:28:39;31.00;74.80
1988;DHT22;12775;46.994;15.498;2022-08-19T15:31:06;31.10;75.10
1988;DHT22;12775;46.994;15.498;2022-08-19T15:33:35;31.20;74.90
1988;DHT22;12775;46.994;15.498;2022-08-19T15:36:05;31.20;72.20